sensor_id;sensor_type;location;lat;lon;timestamp;P1;durP1;ratioP1;P2;durP2;ratioP2
22622;SDS011;11478;51.094;7.030;2023-07-02T00:00:08;7.80;;;3.47;;
22622;SDS011;11478;51.094;7.030;2023-07-02T00:02:38;9.85;;;3.83;;
22622;SDS011;11478;51.094;7.030;2023-07-02T00:05:04;5.50;;;3.60;;
22622;SDS011;11478;51.094;7.030;2023-07-02T00:07:31;8.80;;;3.35;;
22622;SDS011;11478;51.094;7.030;2023-07-02T00:10:04;9.88;;;3.50;;
22622;SDS011;11478;51.094;7.030;2023-07-02T00:12:31;7.20;;;3.40;;
22622;SDS011;11478;51.094;7.030;2023-07-02T00:15:01;9.95;;;3.60;;
22622;SDS011;11478;51.094;7.030;2023-07-02T00:17:27;7.40;;;3.45;;
22622;SDS011;11478;51.094;7.030;2023-07-02T00:19:54;10.18;;;3.20;;
22622;SDS011;11478;51.094;7.030;2023-07-02T00:22:23;8.38;;;3.80;;
22622;SDS011;11478;51.094;7.030;2023-07-02T00:27:39;7.03;;;3.42;;
22622;SDS011;11478;51.094;7.030;2023-07-02T00:30:09;9.13;;;3.70;;
22622;SDS011;11478;51.094;7.030;2023-07-02T00:32:35;8.90;;;3.83;;
22622;SDS011;11478;51.094;7.030;2023-07-02T00:35:03;9.63;;;4.30;;
22622;SDS011;11478;51.094;7.030;2023-07-02T00:37:29;7.45;;;4.00;;
22622;SDS011;11478;51.094;7.030;2023-07-02T00:39:58;10.30;;;4.50;;
22622;SDS011;11478;51.094;7.030;2023-07-02T00:42:24;11.40;;;4.40;;
22622;SDS011;11478;51.094;7.030;2023-07-02T00:44:54;10.13;;;4.22;;
22622;SDS011;11478;51.094;7.030;2023-07-02T00:47:22;11.40;;;5.00;;
22622;SDS011;11478;51.094;7.030;2023-07-02T00:49:50;9.85;;;4.97;;
22622;SDS011;11478;51.094;7.030;2023-07-02T00:52:19;11.77;;;5.13;;
22622;SDS011;11478;51.094;7.030;2023-07-02T00:54:46;13.40;;;5.72;;
22622;SDS011;11478;51.094;7.030;2023-07-02T00:57:12;14.10;;;5.53;;
22622;SDS011;11478;51.094;7.030;2023-07-02T00:59:38;10.02;;;5.22;;
22622;SDS011;11478;51.094;7.030;2023-07-02T01:02:07;16.00;;;5.15;;
22622;SDS011;11478;51.094;7.030;2023-07-02T01:04:37;12.95;;;5.93;;
22622;SDS011;11478;51.094;7.030;2023-07-02T01:07:03;11.82;;;6.20;;
22622;SDS011;11478;51.094;7.030;2023-07-02T01:09:34;13.25;;;5.95;;
22622;SDS011;11478;51.094;7.030;2023-07-02T01:12:00;12.75;;;5.65;;
22622;SDS011;11478;51.094;7.030;2023-07-02T01:17:24;15.02;;;6.72;;
22622;SDS011;11478;51.094;7.030;2023-07-02T01:22:29;18.92;;;7.50;;
22622;SDS011;11478;51.094;7.030;2023-07-02T01:24:59;13.50;;;6.97;;
22622;SDS011;11478;51.094;7.030;2023-07-02T01:27:29;14.55;;;6.88;;
22622;SDS011;11478;51.094;7.030;2023-07-02T01:30:06;14.23;;;7.72;;
22622;SDS011;11478;51.094;7.030;2023-07-02T01:32:34;14.55;;;7.47;;
22622;SDS011;11478;51.094;7.030;2023-07-02T01:35:00;14.30;;;7.30;;
22622;SDS011;11478;51.094;7.030;2023-07-02T01:37:26;15.20;;;7.28;;
22622;SDS011;11478;51.094;7.030;2023-07-02T01:39:54;14.48;;;7.47;;
22622;SDS011;11478;51.094;7.030;2023-07-02T01:42:30;16.90;;;7.10;;
22622;SDS011;11478;51.094;7.030;2023-07-02T01:44:56;16.15;;;7.53;;
22622;SDS011;11478;51.094;7.030;2023-07-02T01:47:25;15.55;;;7.70;;
22622;SDS011;11478;51.094;7.030;2023-07-02T01:50:03;16.13;;;8.07;;
22622;SDS011;11478;51.094;7.030;2023-07-02T01:52:30;18.52;;;7.80;;
22622;SDS011;11478;51.094;7.030;2023-07-02T01:55:00;16.08;;;8.60;;
22622;SDS011;11478;51.094;7.030;2023-07-02T01:57:26;14.13;;;7.88;;
22622;SDS011;11478;51.094;7.030;2023-07-02T01:59:58;15.20;;;7.88;;
22622;SDS011;11478;51.094;7.030;2023-07-02T02:02:24;24.25;;;9.07;;
22622;SDS011;11478;51.094;7.030;2023-07-02T02:04:54;17.10;;;8.50;;
22622;SDS011;11478;51.094;7.030;2023-07-02T02:07:21;14.80;;;8.05;;
22622;SDS011;11478;51.094;7.030;2023-07-02T02:09:50;14.00;;;7.70;;
22622;SDS011;11478;51.094;7.030;2023-07-02T02:12:15;18.23;;;8.00;;
22622;SDS011;11478;51.094;7.030;2023-07-02T02:14:42;15.55;;;8.05;;
22622;SDS011;11478;51.094;7.030;2023-07-02T02:17:07;18.35;;;8.88;;
22622;SDS011;11478;51.094;7.030;2023-07-02T02:19:36;18.70;;;8.20;;
22622;SDS011;11478;51.094;7.030;2023-07-02T02:22:02;20.08;;;8.23;;
22622;SDS011;11478;51.094;7.030;2023-07-02T02:24:29;14.50;;;8.07;;
22622;SDS011;11478;51.094;7.030;2023-07-02T02:26:55;16.13;;;8.35;;
22622;SDS011;11478;51.094;7.030;2023-07-02T02:32:19;19.98;;;9.20;;
22622;SDS011;11478;51.094;7.030;2023-07-02T02:34:46;18.30;;;8.93;;
22622;SDS011;11478;51.094;7.030;2023-07-02T02:37:12;16.27;;;8.90;;
22622;SDS011;11478;51.094;7.030;2023-07-02T02:39:38;15.43;;;8.80;;
22622;SDS011;11478;51.094;7.030;2023-07-02T02:42:07;18.30;;;8.98;;
22622;SDS011;11478;51.094;7.030;2023-07-02T02:44:33;23.70;;;8.73;;
22622;SDS011;11478;51.094;7.030;2023-07-02T02:47:04;17.35;;;9.13;;
22622;SDS011;11478;51.094;7.030;2023-07-02T02:49:30;22.75;;;9.88;;
22622;SDS011;11478;51.094;7.030;2023-07-02T02:54:57;19.15;;;9.60;;
22622;SDS011;11478;51.094;7.030;2023-07-02T02:57:26;25.75;;;11.35;;
22622;SDS011;11478;51.094;7.030;2023-07-02T02:59:52;20.45;;;10.32;;
22622;SDS011;11478;51.094;7.030;2023-07-02T03:02:19;19.10;;;10.07;;
22622;SDS011;11478;51.094;7.030;2023-07-02T03:04:44;19.33;;;9.98;;
22622;SDS011;11478;51.094;7.030;2023-07-02T03:10:02;18.83;;;11.25;;
22622;SDS011;11478;51.094;7.030;2023-07-02T03:12:34;25.08;;;11.90;;
22622;SDS011;11478;51.094;7.030;2023-07-02T03:15:09;21.13;;;11.07;;
22622;SDS011;11478;51.094;7.030;2023-07-02T03:17:39;24.13;;;12.13;;
22622;SDS011;11478;51.094;7.030;2023-07-02T03:20:08;26.27;;;12.27;;
22622;SDS011;11478;51.094;7.030;2023-07-02T03:22:34;26.05;;;12.95;;
22622;SDS011;11478;51.094;7.030;2023-07-02T03:25:00;25.00;;;12.73;;
22622;SDS011;11478;51.094;7.030;2023-07-02T03:27:29;27.92;;;12.68;;
22622;SDS011;11478;51.094;7.030;2023-07-02T03:29:55;27.55;;;12.95;;
22622;SDS011;11478;51.094;7.030;2023-07-02T03:32:21;25.70;;;13.15;;
22622;SDS011;11478;51.094;7.030;2023-07-02T03:34:48;25.92;;;13.45;;
22622;SDS011;11478;51.094;7.030;2023-07-02T03:37:14;26.13;;;14.20;;
22622;SDS011;11478;51.094;7.030;2023-07-02T03:39:48;22.90;;;13.15;;
22622;SDS011;11478;51.094;7.030;2023-07-02T03:42:14;27.58;;;13.50;;
22622;SDS011;11478;51.094;7.030;2023-07-02T03:44:47;25.92;;;12.98;;
22622;SDS011;11478;51.094;7.030;2023-07-02T03:47:13;20.67;;;12.43;;
22622;SDS011;11478;51.094;7.030;2023-07-02T03:49:41;23.33;;;13.02;;
22622;SDS011;11478;51.094;7.030;2023-07-02T03:52:07;24.40;;;13.05;;
22622;SDS011;11478;51.094;7.030;2023-07-02T03:54:47;27.95;;;13.52;;
22622;SDS011;11478;51.094;7.030;2023-07-02T03:57:13;27.92;;;14.02;;
22622;SDS011;11478;51.094;7.030;2023-07-02T04:02:42;28.08;;;14.27;;
22622;SDS011;11478;51.094;7.030;2023-07-02T04:07:46;30.63;;;14.52;;
22622;SDS011;11478;51.094;7.030;2023-07-02T04:10:13;29.75;;;14.38;;
22622;SDS011;11478;51.094;7.030;2023-07-02T04:12:39;26.70;;;14.30;;
22622;SDS011;11478;51.094;7.030;2023-07-02T04:15:05;27.75;;;14.75;;
22622;SDS011;11478;51.094;7.030;2023-07-02T04:17:32;33.13;;;15.85;;
22622;SDS011;11478;51.094;7.030;2023-07-02T04:20:02;28.27;;;14.52;;
22622;SDS011;11478;51.094;7.030;2023-07-02T04:25:05;31.25;;;15.00;;
22622;SDS011;11478;51.094;7.030;2023-07-02T04:27:36;26.75;;;14.77;;
22622;SDS011;11478;51.094;7.030;2023-07-02T04:30:20;28.65;;;16.33;;
22622;SDS011;11478;51.094;7.030;2023-07-02T04:32:53;29.80;;;15.02;;
22622;SDS011;11478;51.094;7.030;2023-07-02T04:35:19;34.38;;;16.45;;
22622;SDS011;11478;51.094;7.030;2023-07-02T04:37:52;37.03;;;15.98;;
22622;SDS011;11478;51.094;7.030;2023-07-02T04:40:18;31.02;;;17.35;;
22622;SDS011;11478;51.094;7.030;2023-07-02T04:45:44;30.65;;;16.02;;
22622;SDS011;11478;51.094;7.030;2023-07-02T04:48:23;32.92;;;16.70;;
22622;SDS011;11478;51.094;7.030;2023-07-02T04:50:49;31.48;;;16.73;;
22622;SDS011;11478;51.094;7.030;2023-07-02T04:56:05;37.03;;;17.17;;
22622;SDS011;11478;51.094;7.030;2023-07-02T04:58:35;33.25;;;17.30;;
22622;SDS011;11478;51.094;7.030;2023-07-02T05:01:01;35.45;;;18.17;;
22622;SDS011;11478;51.094;7.030;2023-07-02T05:03:37;34.95;;;18.40;;
22622;SDS011;11478;51.094;7.030;2023-07-02T05:06:16;34.05;;;18.10;;
22622;SDS011;11478;51.094;7.030;2023-07-02T05:08:58;37.13;;;19.08;;
22622;SDS011;11478;51.094;7.030;2023-07-02T05:11:30;34.53;;;19.20;;
22622;SDS011;11478;51.094;7.030;2023-07-02T05:13:56;39.40;;;19.25;;
22622;SDS011;11478;51.094;7.030;2023-07-02T05:16:35;34.28;;;18.63;;
22622;SDS011;11478;51.094;7.030;2023-07-02T05:19:01;36.65;;;19.33;;
22622;SDS011;11478;51.094;7.030;2023-07-02T05:21:34;32.08;;;18.58;;
22622;SDS011;11478;51.094;7.030;2023-07-02T05:24:00;37.97;;;19.77;;
22622;SDS011;11478;51.094;7.030;2023-07-02T05:26:45;38.10;;;19.92;;
22622;SDS011;11478;51.094;7.030;2023-07-02T05:29:11;40.17;;;20.40;;
22622;SDS011;11478;51.094;7.030;2023-07-02T05:31:40;38.70;;;20.55;;
22622;SDS011;11478;51.094;7.030;2023-07-02T05:34:06;42.28;;;20.13;;
22622;SDS011;11478;51.094;7.030;2023-07-02T05:36:32;38.55;;;20.55;;
22622;SDS011;11478;51.094;7.030;2023-07-02T05:38:59;41.15;;;19.52;;
22622;SDS011;11478;51.094;7.030;2023-07-02T05:41:27;43.88;;;20.63;;
22622;SDS011;11478;51.094;7.030;2023-07-02T05:43:56;42.80;;;21.55;;
22622;SDS011;11478;51.094;7.030;2023-07-02T05:46:25;44.28;;;21.88;;
22622;SDS011;11478;51.094;7.030;2023-07-02T05:48:52;39.05;;;21.00;;
22622;SDS011;11478;51.094;7.030;2023-07-02T05:51:35;41.60;;;21.98;;
22622;SDS011;11478;51.094;7.030;2023-07-02T05:54:01;42.35;;;20.92;;
22622;SDS011;11478;51.094;7.030;2023-07-02T05:56:28;38.05;;;19.63;;
22622;SDS011;11478;51.094;7.030;2023-07-02T05:58:54;41.80;;;21.75;;
22622;SDS011;11478;51.094;7.030;2023-07-02T06:01:20;41.42;;;20.88;;
22622;SDS011;11478;51.094;7.030;2023-07-02T06:03:48;43.72;;;21.40;;
22622;SDS011;11478;51.094;7.030;2023-07-02T06:06:15;46.70;;;22.20;;
22622;SDS011;11478;51.094;7.030;2023-07-02T06:08:46;41.17;;;21.20;;
22622;SDS011;11478;51.094;7.030;2023-07-02T06:11:12;43.65;;;21.85;;
22622;SDS011;11478;51.094;7.030;2023-07-02T06:13:38;41.03;;;21.58;;
22622;SDS011;11478;51.094;7.030;2023-07-02T06:16:07;44.83;;;21.02;;
22622;SDS011;11478;51.094;7.030;2023-07-02T06:18:35;40.60;;;20.65;;
22622;SDS011;11478;51.094;7.030;2023-07-02T06:21:08;44.90;;;22.10;;
22622;SDS011;11478;51.094;7.030;2023-07-02T06:23:41;37.97;;;20.85;;
22622;SDS011;11478;51.094;7.030;2023-07-02T06:26:09;45.55;;;22.20;;
22622;SDS011;11478;51.094;7.030;2023-07-02T06:28:35;45.75;;;21.85;;
22622;SDS011;11478;51.094;7.030;2023-07-02T06:31:06;42.00;;;21.60;;
22622;SDS011;11478;51.094;7.030;2023-07-02T06:33:32;41.85;;;21.80;;
22622;SDS011;11478;51.094;7.030;2023-07-02T06:35:58;42.97;;;20.58;;
22622;SDS011;11478;51.094;7.030;2023-07-02T06:40:55;43.92;;;19.77;;
22622;SDS011;11478;51.094;7.030;2023-07-02T06:43:31;43.35;;;21.20;;
22622;SDS011;11478;51.094;7.030;2023-07-02T06:45:57;46.40;;;21.98;;
22622;SDS011;11478;51.094;7.030;2023-07-02T06:48:24;40.72;;;20.52;;
22622;SDS011;11478;51.094;7.030;2023-07-02T06:50:53;39.83;;;19.67;;
22622;SDS011;11478;51.094;7.030;2023-07-02T06:53:23;44.00;;;21.00;;
22622;SDS011;11478;51.094;7.030;2023-07-02T06:55:48;38.63;;;20.13;;
22622;SDS011;11478;51.094;7.030;2023-07-02T07:00:45;39.38;;;19.42;;
22622;SDS011;11478;51.094;7.030;2023-07-02T07:03:11;39.25;;;20.13;;
22622;SDS011;11478;51.094;7.030;2023-07-02T07:05:40;36.60;;;19.48;;
22622;SDS011;11478;51.094;7.030;2023-07-02T07:08:07;43.55;;;20.00;;
22622;SDS011;11478;51.094;7.030;2023-07-02T07:10:33;36.38;;;19.27;;
22622;SDS011;11478;51.094;7.030;2023-07-02T07:13:14;38.63;;;20.02;;
22622;SDS011;11478;51.094;7.030;2023-07-02T07:15:40;38.35;;;18.92;;
22622;SDS011;11478;51.094;7.030;2023-07-02T07:21:12;44.45;;;20.15;;
22622;SDS011;11478;51.094;7.030;2023-07-02T07:23:39;42.83;;;21.02;;
22622;SDS011;11478;51.094;7.030;2023-07-02T07:26:05;36.25;;;19.90;;
22622;SDS011;11478;51.094;7.030;2023-07-02T07:28:33;38.45;;;19.65;;
22622;SDS011;11478;51.094;7.030;2023-07-02T07:30:59;37.72;;;19.92;;
22622;SDS011;11478;51.094;7.030;2023-07-02T07:36:30;41.35;;;20.00;;
22622;SDS011;11478;51.094;7.030;2023-07-02T07:38:58;38.28;;;19.08;;
22622;SDS011;11478;51.094;7.030;2023-07-02T07:41:24;36.80;;;18.08;;
22622;SDS011;11478;51.094;7.030;2023-07-02T07:43:51;38.53;;;18.38;;
22622;SDS011;11478;51.094;7.030;2023-07-02T07:46:17;37.08;;;18.00;;
22622;SDS011;11478;51.094;7.030;2023-07-02T07:48:54;37.10;;;18.20;;
22622;SDS011;11478;51.094;7.030;2023-07-02T07:51:20;38.58;;;18.02;;
22622;SDS011;11478;51.094;7.030;2023-07-02T07:53:52;34.30;;;17.77;;
22622;SDS011;11478;51.094;7.030;2023-07-02T07:56:18;37.55;;;18.45;;
22622;SDS011;11478;51.094;7.030;2023-07-02T07:58:59;32.63;;;17.70;;
22622;SDS011;11478;51.094;7.030;2023-07-02T08:01:26;32.15;;;17.75;;
22622;SDS011;11478;51.094;7.030;2023-07-02T08:03:54;34.30;;;17.25;;
22622;SDS011;11478;51.094;7.030;2023-07-02T08:06:29;35.97;;;17.00;;
22622;SDS011;11478;51.094;7.030;2023-07-02T08:09:29;30.98;;;15.32;;
22622;SDS011;11478;51.094;7.030;2023-07-02T08:11:59;37.55;;;16.88;;
22622;SDS011;11478;51.094;7.030;2023-07-02T08:14:25;31.23;;;14.63;;
22622;SDS011;11478;51.094;7.030;2023-07-02T08:16:51;35.80;;;15.35;;
22622;SDS011;11478;51.094;7.030;2023-07-02T08:19:20;35.30;;;16.70;;
22622;SDS011;11478;51.094;7.030;2023-07-02T08:21:50;36.97;;;16.25;;
22622;SDS011;11478;51.094;7.030;2023-07-02T08:24:23;34.08;;;16.08;;
22622;SDS011;11478;51.094;7.030;2023-07-02T08:27:14;30.67;;;15.25;;
22622;SDS011;11478;51.094;7.030;2023-07-02T08:29:46;30.23;;;16.05;;
22622;SDS011;11478;51.094;7.030;2023-07-02T08:32:23;33.42;;;16.27;;
22622;SDS011;11478;51.094;7.030;2023-07-02T08:34:49;34.72;;;15.85;;
22622;SDS011;11478;51.094;7.030;2023-07-02T08:37:16;32.55;;;16.10;;
22622;SDS011;11478;51.094;7.030;2023-07-02T08:39:51;34.20;;;16.83;;
22622;SDS011;11478;51.094;7.030;2023-07-02T08:42:16;35.35;;;16.80;;
22622;SDS011;11478;51.094;7.030;2023-07-02T08:44:54;31.45;;;15.82;;
22622;SDS011;11478;51.094;7.030;2023-07-02T08:47:21;33.10;;;16.15;;
22622;SDS011;11478;51.094;7.030;2023-07-02T08:49:50;34.30;;;14.93;;
22622;SDS011;11478;51.094;7.030;2023-07-02T08:52:16;38.30;;;16.08;;
22622;SDS011;11478;51.094;7.030;2023-07-02T08:54:44;30.88;;;15.18;;
22622;SDS011;11478;51.094;7.030;2023-07-02T08:57:10;34.60;;;16.35;;
22622;SDS011;11478;51.094;7.030;2023-07-02T08:59:38;35.22;;;16.00;;
22622;SDS011;11478;51.094;7.030;2023-07-02T09:02:04;33.50;;;16.08;;
22622;SDS011;11478;51.094;7.030;2023-07-02T09:04:36;33.63;;;16.17;;
22622;SDS011;11478;51.094;7.030;2023-07-02T09:07:05;29.75;;;14.93;;
22622;SDS011;11478;51.094;7.030;2023-07-02T09:12:27;29.95;;;15.10;;
22622;SDS011;11478;51.094;7.030;2023-07-02T09:15:01;28.35;;;14.68;;
22622;SDS011;11478;51.094;7.030;2023-07-02T09:17:35;27.25;;;14.43;;
22622;SDS011;11478;51.094;7.030;2023-07-02T09:20:05;29.52;;;14.98;;
22622;SDS011;11478;51.094;7.030;2023-07-02T09:22:34;31.02;;;14.52;;
22622;SDS011;11478;51.094;7.030;2023-07-02T09:25:01;30.20;;;15.55;;
22622;SDS011;11478;51.094;7.030;2023-07-02T09:27:37;31.33;;;15.32;;
22622;SDS011;11478;51.094;7.030;2023-07-02T09:30:16;29.25;;;14.88;;
22622;SDS011;11478;51.094;7.030;2023-07-02T09:35:19;29.40;;;14.75;;
22622;SDS011;11478;51.094;7.030;2023-07-02T09:37:53;32.55;;;15.38;;
22622;SDS011;11478;51.094;7.030;2023-07-02T09:40:30;26.73;;;15.15;;
22622;SDS011;11478;51.094;7.030;2023-07-02T09:42:56;29.75;;;15.45;;
22622;SDS011;11478;51.094;7.030;2023-07-02T09:45:23;32.28;;;15.38;;
22622;SDS011;11478;51.094;7.030;2023-07-02T09:47:49;28.95;;;14.82;;
22622;SDS011;11478;51.094;7.030;2023-07-02T09:50:23;32.10;;;15.38;;
22622;SDS011;11478;51.094;7.030;2023-07-02T09:52:50;34.70;;;15.77;;
22622;SDS011;11478;51.094;7.030;2023-07-02T09:55:28;28.75;;;15.10;;
22622;SDS011;11478;51.094;7.030;2023-07-02T09:57:55;33.13;;;15.63;;
22622;SDS011;11478;51.094;7.030;2023-07-02T10:00:26;28.15;;;15.60;;
22622;SDS011;11478;51.094;7.030;2023-07-02T10:02:56;29.70;;;15.73;;
22622;SDS011;11478;51.094;7.030;2023-07-02T10:05:39;30.75;;;15.77;;
22622;SDS011;11478;51.094;7.030;2023-07-02T10:08:15;31.63;;;16.33;;
22622;SDS011;11478;51.094;7.030;2023-07-02T10:10:48;31.17;;;15.77;;
22622;SDS011;11478;51.094;7.030;2023-07-02T10:13:14;32.85;;;17.02;;
22622;SDS011;11478;51.094;7.030;2023-07-02T10:15:40;32.47;;;16.67;;
22622;SDS011;11478;51.094;7.030;2023-07-02T10:18:17;33.47;;;16.77;;
22622;SDS011;11478;51.094;7.030;2023-07-02T10:21:12;31.50;;;16.00;;
22622;SDS011;11478;51.094;7.030;2023-07-02T10:23:41;31.33;;;16.60;;
22622;SDS011;11478;51.094;7.030;2023-07-02T10:26:18;33.72;;;16.52;;
22622;SDS011;11478;51.094;7.030;2023-07-02T10:29:03;34.95;;;17.15;;
22622;SDS011;11478;51.094;7.030;2023-07-02T10:31:29;31.83;;;16.80;;
22622;SDS011;11478;51.094;7.030;2023-07-02T10:33:55;37.92;;;17.25;;
22622;SDS011;11478;51.094;7.030;2023-07-02T10:36:30;35.30;;;16.73;;
22622;SDS011;11478;51.094;7.030;2023-07-02T10:39:00;29.73;;;15.63;;
22622;SDS011;11478;51.094;7.030;2023-07-02T10:41:34;31.77;;;16.15;;
22622;SDS011;11478;51.094;7.030;2023-07-02T10:44:06;31.27;;;15.95;;
22622;SDS011;11478;51.094;7.030;2023-07-02T10:46:48;27.88;;;15.68;;
22622;SDS011;11478;51.094;7.030;2023-07-02T10:49:49;31.75;;;15.10;;
22622;SDS011;11478;51.094;7.030;2023-07-02T10:52:10;32.10;;;15.35;;
22622;SDS011;11478;51.094;7.030;2023-07-02T10:54:46;32.08;;;15.13;;
22622;SDS011;11478;51.094;7.030;2023-07-02T10:57:17;29.55;;;15.05;;
22622;SDS011;11478;51.094;7.030;2023-07-02T10:59:49;32.55;;;15.70;;
22622;SDS011;11478;51.094;7.030;2023-07-02T11:02:15;32.90;;;16.27;;
22622;SDS011;11478;51.094;7.030;2023-07-02T11:04:41;33.30;;;15.68;;
22622;SDS011;11478;51.094;7.030;2023-07-02T11:07:09;34.63;;;16.48;;
22622;SDS011;11478;51.094;7.030;2023-07-02T11:09:37;30.60;;;15.77;;
22622;SDS011;11478;51.094;7.030;2023-07-02T11:12:03;29.42;;;15.57;;
22622;SDS011;11478;51.094;7.030;2023-07-02T11:17:14;33.00;;;15.88;;
22622;SDS011;11478;51.094;7.030;2023-07-02T11:19:49;28.65;;;15.13;;
22622;SDS011;11478;51.094;7.030;2023-07-02T11:25:07;28.92;;;13.30;;
22622;SDS011;11478;51.094;7.030;2023-07-02T11:28:06;28.80;;;12.80;;
22622;SDS011;11478;51.094;7.030;2023-07-02T11:33:10;24.48;;;12.55;;
22622;SDS011;11478;51.094;7.030;2023-07-02T11:35:43;22.38;;;12.27;;
22622;SDS011;11478;51.094;7.030;2023-07-02T11:38:18;25.52;;;11.95;;
22622;SDS011;11478;51.094;7.030;2023-07-02T11:40:47;27.95;;;13.30;;
22622;SDS011;11478;51.094;7.030;2023-07-02T11:43:13;25.13;;;12.77;;
22622;SDS011;11478;51.094;7.030;2023-07-02T11:45:40;27.00;;;13.60;;
22622;SDS011;11478;51.094;7.030;2023-07-02T11:48:16;26.75;;;13.02;;
22622;SDS011;11478;51.094;7.030;2023-07-02T11:50:41;25.52;;;12.50;;
22622;SDS011;11478;51.094;7.030;2023-07-02T11:53:09;28.88;;;13.75;;
22622;SDS011;11478;51.094;7.030;2023-07-02T11:55:38;27.92;;;13.00;;
22622;SDS011;11478;51.094;7.030;2023-07-02T11:58:08;26.92;;;13.82;;
22622;SDS011;11478;51.094;7.030;2023-07-02T12:00:34;24.15;;;12.10;;
22622;SDS011;11478;51.094;7.030;2023-07-02T12:03:01;26.58;;;13.13;;
22622;SDS011;11478;51.094;7.030;2023-07-02T12:05:27;27.10;;;12.98;;
22622;SDS011;11478;51.094;7.030;2023-07-02T12:07:53;24.40;;;12.57;;
22622;SDS011;11478;51.094;7.030;2023-07-02T12:10:19;25.25;;;12.32;;
22622;SDS011;11478;51.094;7.030;2023-07-02T12:12:50;22.95;;;10.98;;
22622;SDS011;11478;51.094;7.030;2023-07-02T12:15:15;39.35;;;11.10;;
22622;SDS011;11478;51.094;7.030;2023-07-02T12:17:41;19.73;;;10.82;;
22622;SDS011;11478;51.094;7.030;2023-07-02T12:20:07;21.15;;;10.13;;
22622;SDS011;11478;51.094;7.030;2023-07-02T12:22:46;21.92;;;10.90;;
22622;SDS011;11478;51.094;7.030;2023-07-02T12:25:12;22.40;;;10.88;;
22622;SDS011;11478;51.094;7.030;2023-07-02T12:27:47;25.25;;;10.95;;
22622;SDS011;11478;51.094;7.030;2023-07-02T12:30:13;22.48;;;10.27;;
22622;SDS011;11478;51.094;7.030;2023-07-02T12:32:43;21.75;;;10.90;;
22622;SDS011;11478;51.094;7.030;2023-07-02T12:35:09;22.35;;;10.43;;
22622;SDS011;11478;51.094;7.030;2023-07-02T12:37:42;25.95;;;10.98;;
22622;SDS011;11478;51.094;7.030;2023-07-02T12:40:13;25.25;;;11.10;;
22622;SDS011;11478;51.094;7.030;2023-07-02T12:42:42;26.58;;;10.95;;
22622;SDS011;11478;51.094;7.030;2023-07-02T12:45:12;20.65;;;10.30;;
22622;SDS011;11478;51.094;7.030;2023-07-02T12:47:45;20.05;;;10.70;;
22622;SDS011;11478;51.094;7.030;2023-07-02T12:50:10;20.98;;;10.25;;
22622;SDS011;11478;51.094;7.030;2023-07-02T12:52:36;21.88;;;10.45;;
22622;SDS011;11478;51.094;7.030;2023-07-02T12:55:03;19.48;;;10.23;;
22622;SDS011;11478;51.094;7.030;2023-07-02T12:57:38;19.05;;;8.23;;
22622;SDS011;11478;51.094;7.030;2023-07-02T13:00:04;18.60;;;8.15;;
22622;SDS011;11478;51.094;7.030;2023-07-02T13:02:32;17.70;;;8.48;;
22622;SDS011;11478;51.094;7.030;2023-07-02T13:05:01;19.25;;;8.43;;
22622;SDS011;11478;51.094;7.030;2023-07-02T13:07:36;17.27;;;7.97;;
22622;SDS011;11478;51.094;7.030;2023-07-02T13:10:05;18.42;;;8.50;;
22622;SDS011;11478;51.094;7.030;2023-07-02T13:12:32;17.33;;;8.27;;
22622;SDS011;11478;51.094;7.030;2023-07-02T13:15:07;20.88;;;8.32;;
22622;SDS011;11478;51.094;7.030;2023-07-02T13:17:36;21.45;;;8.23;;
22622;SDS011;11478;51.094;7.030;2023-07-02T13:20:06;20.65;;;8.18;;
22622;SDS011;11478;51.094;7.030;2023-07-02T13:22:36;18.63;;;7.57;;
22622;SDS011;11478;51.094;7.030;2023-07-02T13:25:02;18.65;;;8.52;;
22622;SDS011;11478;51.094;7.030;2023-07-02T13:27:32;16.40;;;8.20;;
22622;SDS011;11478;51.094;7.030;2023-07-02T13:29:58;17.38;;;8.95;;
22622;SDS011;11478;51.094;7.030;2023-07-02T13:32:32;17.45;;;8.52;;
22622;SDS011;11478;51.094;7.030;2023-07-02T13:34:58;18.65;;;8.65;;
22622;SDS011;11478;51.094;7.030;2023-07-02T13:37:27;17.45;;;8.73;;
22622;SDS011;11478;51.094;7.030;2023-07-02T13:39:53;17.27;;;8.85;;
22622;SDS011;11478;51.094;7.030;2023-07-02T13:42:19;17.05;;;8.85;;
22622;SDS011;11478;51.094;7.030;2023-07-02T13:44:45;19.17;;;9.18;;
22622;SDS011;11478;51.094;7.030;2023-07-02T14:15:56;19.40;;;10.23;;
22622;SDS011;11478;51.094;7.030;2023-07-02T14:18:26;21.77;;;10.80;;
22622;SDS011;11478;51.094;7.030;2023-07-02T14:20:54;22.35;;;10.40;;
22622;SDS011;11478;51.094;7.030;2023-07-02T14:23:20;20.10;;;10.23;;
22622;SDS011;11478;51.094;7.030;2023-07-02T14:25:57;20.75;;;10.13;;
22622;SDS011;11478;51.094;7.030;2023-07-02T14:28:23;21.50;;;10.93;;
22622;SDS011;11478;51.094;7.030;2023-07-02T14:31:03;22.25;;;10.55;;
22622;SDS011;11478;51.094;7.030;2023-07-02T14:33:30;24.73;;;10.60;;
22622;SDS011;11478;51.094;7.030;2023-07-02T14:38:47;22.83;;;11.10;;
22622;SDS011;11478;51.094;7.030;2023-07-02T14:41:15;22.15;;;9.98;;
22622;SDS011;11478;51.094;7.030;2023-07-02T14:43:41;23.27;;;10.55;;
22622;SDS011;11478;51.094;7.030;2023-07-02T14:46:08;21.83;;;10.25;;
22622;SDS011;11478;51.094;7.030;2023-07-02T14:48:34;22.38;;;10.52;;
22622;SDS011;11478;51.094;7.030;2023-07-02T14:51:00;23.13;;;10.95;;
22622;SDS011;11478;51.094;7.030;2023-07-02T14:53:29;25.10;;;10.93;;
22622;SDS011;11478;51.094;7.030;2023-07-02T14:55:58;23.27;;;11.13;;
22622;SDS011;11478;51.094;7.030;2023-07-02T14:58:26;20.48;;;10.10;;
22622;SDS011;11478;51.094;7.030;2023-07-02T15:00:57;22.88;;;10.45;;
22622;SDS011;11478;51.094;7.030;2023-07-02T15:03:24;19.23;;;10.18;;
22622;SDS011;11478;51.094;7.030;2023-07-02T15:05:52;21.10;;;10.43;;
22622;SDS011;11478;51.094;7.030;2023-07-02T15:08:19;22.55;;;11.20;;
22622;SDS011;11478;51.094;7.030;2023-07-02T15:10:47;25.00;;;10.77;;
22622;SDS011;11478;51.094;7.030;2023-07-02T15:13:14;20.58;;;10.27;;
22622;SDS011;11478;51.094;7.030;2023-07-02T15:15:42;28.08;;;10.73;;
22622;SDS011;11478;51.094;7.030;2023-07-02T15:18:13;24.38;;;10.57;;
22622;SDS011;11478;51.094;7.030;2023-07-02T15:20:54;24.05;;;10.73;;
22622;SDS011;11478;51.094;7.030;2023-07-02T15:23:23;25.08;;;10.82;;
22622;SDS011;11478;51.094;7.030;2023-07-02T15:26:08;20.25;;;10.55;;
22622;SDS011;11478;51.094;7.030;2023-07-02T15:28:42;21.13;;;10.93;;
22622;SDS011;11478;51.094;7.030;2023-07-02T15:31:16;21.63;;;10.88;;
22622;SDS011;11478;51.094;7.030;2023-07-02T15:33:47;26.27;;;11.32;;
22622;SDS011;11478;51.094;7.030;2023-07-02T15:36:32;20.55;;;10.80;;
22622;SDS011;11478;51.094;7.030;2023-07-02T15:39:14;20.15;;;11.40;;
22622;SDS011;11478;51.094;7.030;2023-07-02T15:41:47;22.90;;;10.68;;
22622;SDS011;11478;51.094;7.030;2023-07-02T15:47:02;21.70;;;11.32;;
22622;SDS011;11478;51.094;7.030;2023-07-02T15:49:33;22.55;;;11.18;;
22622;SDS011;11478;51.094;7.030;2023-07-02T15:52:04;23.20;;;11.20;;
22622;SDS011;11478;51.094;7.030;2023-07-02T15:54:31;21.38;;;10.98;;
22622;SDS011;11478;51.094;7.030;2023-07-02T15:56:57;20.85;;;10.50;;
22622;SDS011;11478;51.094;7.030;2023-07-02T15:59:33;19.70;;;11.52;;
22622;SDS011;11478;51.094;7.030;2023-07-02T16:01:59;23.92;;;11.23;;
22622;SDS011;11478;51.094;7.030;2023-07-02T16:04:24;22.38;;;11.23;;
22622;SDS011;11478;51.094;7.030;2023-07-02T16:06:51;21.15;;;11.32;;
22622;SDS011;11478;51.094;7.030;2023-07-02T16:09:17;23.20;;;11.25;;